sensor_id;sensor_type;location;lat;lon;timestamp;temperature;humidity
31619;DHT22;18230;51.502;7.108;2022-09-09T00:04:32;17.20;99.90
31619;DHT22;18230;51.502;7.108;2022-09-09T00:10:03;17.20;99.90
31619;DHT22;18230;51.502;7.108;2022-09-09T00:15:11;17.10;99.90
31619;DHT22;18230;51.502;7.108;2022-09-09T00:25:30;17.20;99.90
31619;DHT22;18230;51.502;7.108;2022-09-09T00:30:34;17.20;99.90
31619;DHT22;18230;51.502;7.108;2022-09-09T00:35:51;17.20;99.90
31619;DHT22;18230;51.502;7.108;2022-09-09T00:41:22;17.10;99.90
31619;DHT22;18230;51.502;7.108;2022-09-09T00:57:32;16.90;99.90
31619;DHT22;18230;51.502;7.108;2022-09-09T01:03:11;16.70;99.90
31619;DHT22;18230;51.502;7.108;2022-09-09T01:13:36;16.80;99.90
31619;DHT22;18230;51.502;7.108;2022-09-09T01:18:49;16.90;99.90
31619;DHT22;18230;51.502;7.108;2022-09-09T01:29:17;16.90;99.90
31619;DHT22;18230;51.502;7.108;2022-09-09T01:34:19;17.00;99.90
31619;DHT22;18230;51.502;7.108;2022-09-09T01:39:20;17.00;99.90
31619;DHT22;18230;51.502;7.108;2022-09-09T01:44:21;17.00;99.90
31619;DHT22;18230;51.502;7.108;2022-09-09T01:49:23;17.10;99.90
31619;DHT22;18230;51.502;7.108;2022-09-09T01:54:26;17.00;99.90
31619;DHT22;18230;51.502;7.108;2022-09-09T01:59:51;17.00;99.90
31619;DHT22;18230;51.502;7.108;2022-09-09T02:10:30;17.10;99.90
31619;DHT22;18230;51.502;7.108;2022-09-09T02:15:38;17.00;99.90
31619;DHT22;18230;51.502;7.108;2022-09-09T02:20:44;17.00;99.90
31619;DHT22;18230;51.502;7.108;2022-09-09T02:25:46;17.00;99.90
31619;DHT22;18230;51.502;7.108;2022-09-09T02:30:50;16.90;99.90
31619;DHT22;18230;51.502;7.108;2022-09-09T02:35:56;16.90;99.90
31619;DHT22;18230;51.502;7.108;2022-09-09T02:41:02;17.00;99.90
31619;DHT22;18230;51.502;7.108;2022-09-09T02:51:59;17.10;99.90
31619;DHT22;18230;51.502;7.108;2022-09-09T02:57:20;17.10;99.90
31619;DHT22;18230;51.502;7.108;2022-09-09T03:02:22;17.10;99.90
31619;DHT22;18230;51.502;7.108;2022-09-09T03:07:22;17.10;99.90
31619;DHT22;18230;51.502;7.108;2022-09-09T03:12:23;17.10;99.90
31619;DHT22;18230;51.502;7.108;2022-09-09T03:17:24;17.10;99.90
31619;DHT22;18230;51.502;7.108;2022-09-09T03:22:25;17.10;99.90
31619;DHT22;18230;51.502;7.108;2022-09-09T03:27:25;17.10;99.90
31619;DHT22;18230;51.502;7.108;2022-09-09T03:32:26;17.10;99.90
31619;DHT22;18230;51.502;7.108;2022-09-09T03:37:27;17.10;99.90
31619;DHT22;18230;51.502;7.108;2022-09-09T03:42:28;17.00;99.90
31619;DHT22;18230;51.502;7.108;2022-09-09T03:47:28;16.90;99.90
31619;DHT22;18230;51.502;7.108;2022-09-09T03:52:29;16.90;99.90
31619;DHT22;18230;51.502;7.108;2022-09-09T03:57:31;16.90;99.90
31619;DHT22;18230;51.502;7.108;2022-09-09T04:02:35;16.80;99.90
31619;DHT22;18230;51.502;7.108;2022-09-09T04:07:35;16.80;99.90
31619;DHT22;18230;51.502;7.108;2022-09-09T04:12:36;16.90;99.90
31619;DHT22;18230;51.502;7.108;2022-09-09T04:17:37;16.80;99.90
31619;DHT22;18230;51.502;7.108;2022-09-09T04:22:37;16.80;99.90
31619;DHT22;18230;51.502;7.108;2022-09-09T04:27:39;16.80;99.90
31619;DHT22;18230;51.502;7.108;2022-09-09T04:32:39;16.80;99.90
31619;DHT22;18230;51.502;7.108;2022-09-09T04:37:40;16.80;99.90
31619;DHT22;18230;51.502;7.108;2022-09-09T04:42:41;16.80;99.90
31619;DHT22;18230;51.502;7.108;2022-09-09T04:47:44;16.80;99.90
31619;DHT22;18230;51.502;7.108;2022-09-09T04:52:44;16.70;99.90
31619;DHT22;18230;51.502;7.108;2022-09-09T04:57:45;16.80;99.90
31619;DHT22;18230;51.502;7.108;2022-09-09T05:02:46;16.90;99.90
31619;DHT22;18230;51.502;7.108;2022-09-09T05:07:47;17.00;99.90
31619;DHT22;18230;51.502;7.108;2022-09-09T05:12:54;17.00;99.90
31619;DHT22;18230;51.502;7.108;2022-09-09T05:18:01;17.10;99.90
31619;DHT22;18230;51.502;7.108;2022-09-09T05:23:02;17.00;99.90
31619;DHT22;18230;51.502;7.108;2022-09-09T05:28:03;17.10;99.90
31619;DHT22;18230;51.502;7.108;2022-09-09T05:33:03;17.20;99.90
31619;DHT22;18230;51.502;7.108;2022-09-09T05:38:04;17.20;99.90
31619;DHT22;18230;51.502;7.108;2022-09-09T05:43:08;17.20;99.90
31619;DHT22;18230;51.502;7.108;2022-09-09T05:48:08;17.20;99.90
31619;DHT22;18230;51.502;7.108;2022-09-09T05:53:09;17.30;99.90
31619;DHT22;18230;51.502;7.108;2022-09-09T05:58:11;17.30;99.90
31619;DHT22;18230;51.502;7.108;2022-09-09T06:03:12;17.40;99.90
31619;DHT22;18230;51.502;7.108;2022-09-09T06:08:13;17.40;99.90
31619;DHT22;18230;51.502;7.108;2022-09-09T06:13:13;17.40;99.90
31619;DHT22;18230;51.502;7.108;2022-09-09T06:18:14;17.50;99.90
31619;DHT22;18230;51.502;7.108;2022-09-09T06:23:18;17.50;99.90
31619;DHT22;18230;51.502;7.108;2022-09-09T06:28:20;17.60;99.90
31619;DHT22;18230;51.502;7.108;2022-09-09T06:33:21;17.70;99.90
31619;DHT22;18230;51.502;7.108;2022-09-09T06:38:21;17.80;99.90
31619;DHT22;18230;51.502;7.108;2022-09-09T06:43:24;17.80;99.90
31619;DHT22;18230;51.502;7.108;2022-09-09T06:48:25;18.00;99.90
31619;DHT22;18230;51.502;7.108;2022-09-09T06:53:26;18.10;99.90
31619;DHT22;18230;51.502;7.108;2022-09-09T06:58:27;18.20;99.90
31619;DHT22;18230;51.502;7.108;2022-09-09T07:03:29;18.20;99.90
31619;DHT22;18230;51.502;7.108;2022-09-09T07:08:29;18.30;99.90
31619;DHT22;18230;51.502;7.108;2022-09-09T07:13:34;18.30;99.90
31619;DHT22;18230;51.502;7.108;2022-09-09T07:18:35;18.50;99.90
31619;DHT22;18230;51.502;7.108;2022-09-09T07:23:36;18.90;99.90
31619;DHT22;18230;51.502;7.108;2022-09-09T07:28:37;19.00;99.90
31619;DHT22;18230;51.502;7.108;2022-09-09T07:33:38;19.00;99.90
31619;DHT22;18230;51.502;7.108;2022-09-09T07:38:50;19.00;99.90
31619;DHT22;18230;51.502;7.108;2022-09-09T07:43:52;19.20;99.90
31619;DHT22;18230;51.502;7.108;2022-09-09T07:48:55;19.50;99.90
31619;DHT22;18230;51.502;7.108;2022-09-09T07:54:05;19.80;99.90
31619;DHT22;18230;51.502;7.108;2022-09-09T07:59:07;20.00;99.90
31619;DHT22;18230;51.502;7.108;2022-09-09T08:04:10;20.00;99.90
31619;DHT22;18230;51.502;7.108;2022-09-09T08:09:16;20.30;99.90
31619;DHT22;18230;51.502;7.108;2022-09-09T08:14:17;20.40;99.90
31619;DHT22;18230;51.502;7.108;2022-09-09T08:19:18;20.30;99.90
31619;DHT22;18230;51.502;7.108;2022-09-09T08:24:18;20.40;99.90
31619;DHT22;18230;51.502;7.108;2022-09-09T08:29:20;20.30;99.90
31619;DHT22;18230;51.502;7.108;2022-09-09T08:34:21;20.00;99.90
31619;DHT22;18230;51.502;7.108;2022-09-09T08:39:22;19.90;99.90
31619;DHT22;18230;51.502;7.108;2022-09-09T08:50:19;20.10;99.90
31619;DHT22;18230;51.502;7.108;2022-09-09T08:55:53;20.20;99.90
31619;DHT22;18230;51.502;7.108;2022-09-09T09:22:06;20.50;99.90
31619;DHT22;18230;51.502;7.108;2022-09-09T09:27:18;20.90;99.90
31619;DHT22;18230;51.502;7.108;2022-09-09T09:32:22;21.10;99.90
31619;DHT22;18230;51.502;7.108;2022-09-09T09:37:32;21.20;99.90
31619;DHT22;18230;51.502;7.108;2022-09-09T09:42:35;21.50;99.90
31619;DHT22;18230;51.502;7.108;2022-09-09T09:47:36;21.50;99.90
31619;DHT22;18230;51.502;7.108;2022-09-09T09:52:36;21.60;99.90
31619;DHT22;18230;51.502;7.108;2022-09-09T09:57:37;21.70;99.90
31619;DHT22;18230;51.502;7.108;2022-09-09T10:02:40;21.60;99.90
31619;DHT22;18230;51.502;7.108;2022-09-09T10:07:44;21.50;99.90
31619;DHT22;18230;51.502;7.108;2022-09-09T10:12:52;21.50;99.90
31619;DHT22;18230;51.502;7.108;2022-09-09T10:39:05;21.80;99.90
31619;DHT22;18230;51.502;7.108;2022-09-09T10:44:27;21.70;99.90
31619;DHT22;18230;51.502;7.108;2022-09-09T10:55:19;21.50;99.90
31619;DHT22;18230;51.502;7.108;2022-09-09T11:15:58;21.40;99.90
31619;DHT22;18230;51.502;7.108;2022-09-09T11:21:02;21.20;99.90
31619;DHT22;18230;51.502;7.108;2022-09-09T11:26:07;21.40;99.90
31619;DHT22;18230;51.502;7.108;2022-09-09T11:37:05;21.40;99.90
31619;DHT22;18230;51.502;7.108;2022-09-09T11:42:19;21.70;99.90
31619;DHT22;18230;51.502;7.108;2022-09-09T11:47:24;22.30;99.90
31619;DHT22;18230;51.502;7.108;2022-09-09T11:52:39;22.20;99.90
31619;DHT22;18230;51.502;7.108;2022-09-09T11:57:42;22.10;99.90
31619;DHT22;18230;51.502;7.108;2022-09-09T12:02:49;22.30;99.90
31619;DHT22;18230;51.502;7.108;2022-09-09T12:08:00;22.30;99.90
31619;DHT22;18230;51.502;7.108;2022-09-09T12:13:23;21.90;99.90
31619;DHT22;18230;51.502;7.108;2022-09-09T12:24:15;21.10;99.90
31619;DHT22;18230;51.502;7.108;2022-09-09T12:29:52;21.30;99.90
31619;DHT22;18230;51.502;7.108;2022-09-09T12:35:12;21.60;99.90
31619;DHT22;18230;51.502;7.108;2022-09-09T12:40:26;21.60;99.90
31619;DHT22;18230;51.502;7.108;2022-09-09T12:45:29;21.70;99.90
31619;DHT22;18230;51.502;7.108;2022-09-09T12:50:34;21.60;99.90
31619;DHT22;18230;51.502;7.108;2022-09-09T12:55:38;21.70;99.90
31619;DHT22;18230;51.502;7.108;2022-09-09T13:00:52;21.80;99.90
31619;DHT22;18230;51.502;7.108;2022-09-09T13:06:12;21.90;99.90
31619;DHT22;18230;51.502;7.108;2022-09-09T13:11:18;22.00;99.90
31619;DHT22;18230;51.502;7.108;2022-09-09T13:16:30;22.00;99.90
31619;DHT22;18230;51.502;7.108;2022-09-09T13:21:36;21.80;99.90
31619;DHT22;18230;51.502;7.108;2022-09-09T13:26:37;21.50;99.90
31619;DHT22;18230;51.502;7.108;2022-09-09T13:31:39;21.30;99.90
31619;DHT22;18230;51.502;7.108;2022-09-09T13:36:40;20.80;99.90
31619;DHT22;18230;51.502;7.108;2022-09-09T13:41:46;20.10;99.90
31619;DHT22;18230;51.502;7.108;2022-09-09T13:46:59;20.20;99.90
31619;DHT22;18230;51.502;7.108;2022-09-09T13:57:22;20.20;99.90
31619;DHT22;18230;51.502;7.108;2022-09-09T14:02:23;20.20;99.90
31619;DHT22;18230;51.502;7.108;2022-09-09T14:07:25;20.20;99.90
31619;DHT22;18230;51.502;7.108;2022-09-09T14:12:26;20.30;99.90
31619;DHT22;18230;51.502;7.108;2022-09-09T14:17:26;20.70;99.90
31619;DHT22;18230;51.502;7.108;2022-09-09T14:22:29;21.00;99.90
31619;DHT22;18230;51.502;7.108;2022-09-09T14:27:30;21.10;99.90
31619;DHT22;18230;51.502;7.108;2022-09-09T14:32:31;21.00;99.90
31619;DHT22;18230;51.502;7.108;2022-09-09T14:37:31;20.90;99.90
31619;DHT22;18230;51.502;7.108;2022-09-09T14:42:32;20.90;99.90
31619;DHT22;18230;51.502;7.108;2022-09-09T14:47:33;20.80;99.90
31619;DHT22;18230;51.502;7.108;2022-09-09T14:52:33;20.80;99.90
31619;DHT22;18230;51.502;7.108;2022-09-09T14:57:34;20.70;99.90
31619;DHT22;18230;51.502;7.108;2022-09-09T15:02:36;21.20;99.90
31619;DHT22;18230;51.502;7.108;2022-09-09T15:07:36;21.00;99.90
31619;DHT22;18230;51.502;7.108;2022-09-09T15:12:38;20.80;99.90
31619;DHT22;18230;51.502;7.108;2022-09-09T15:17:39;20.50;99.90
31619;DHT22;18230;51.502;7.108;2022-09-09T15:22:41;19.80;99.90
31619;DHT22;18230;51.502;7.108;2022-09-09T15:27:41;19.10;99.90
31619;DHT22;18230;51.502;7.108;2022-09-09T15:32:43;18.90;99.90
31619;DHT22;18230;51.502;7.108;2022-09-09T15:37:43;18.80;99.90
31619;DHT22;18230;51.502;7.108;2022-09-09T15:42:45;18.80;99.90
31619;DHT22;18230;51.502;7.108;2022-09-09T15:47:47;18.90;99.90
31619;DHT22;18230;51.502;7.108;2022-09-09T15:52:48;19.00;99.90
31619;DHT22;18230;51.502;7.108;2022-09-09T15:57:49;19.10;99.90
31619;DHT22;18230;51.502;7.108;2022-09-09T16:02:50;19.10;99.90
31619;DHT22;18230;51.502;7.108;2022-09-09T16:07:52;19.00;99.90
31619;DHT22;18230;51.502;7.108;2022-09-09T16:12:52;18.90;99.90
31619;DHT22;18230;51.502;7.108;2022-09-09T16:17:56;18.80;99.90
31619;DHT22;18230;51.502;7.108;2022-09-09T16:22:57;18.90;99.90
31619;DHT22;18230;51.502;7.108;2022-09-09T16:27:59;18.90;99.90
31619;DHT22;18230;51.502;7.108;2022-09-09T16:33:00;19.10;99.90
31619;DHT22;18230;51.502;7.108;2022-09-09T16:38:00;19.20;99.90
31619;DHT22;18230;51.502;7.108;2022-09-09T16:43:05;19.10;99.90
31619;DHT22;18230;51.502;7.108;2022-09-09T16:48:16;19.00;99.90
31619;DHT22;18230;51.502;7.108;2022-09-09T16:53:18;18.90;99.90
31619;DHT22;18230;51.502;7.108;2022-09-09T17:10:32;18.70;99.90
31619;DHT22;18230;51.502;7.108;2022-09-09T17:15:43;18.60;99.90
31619;DHT22;18230;51.502;7.108;2022-09-09T17:20:46;18.50;99.90
31619;DHT22;18230;51.502;7.108;2022-09-09T17:26:16;18.60;99.90
31619;DHT22;18230;51.502;7.108;2022-09-09T17:31:25;18.50;99.90
31619;DHT22;18230;51.502;7.108;2022-09-09T17:36:49;18.40;99.90
31619;DHT22;18230;51.502;7.108;2022-09-09T17:42:25;18.40;99.90
31619;DHT22;18230;51.502;7.108;2022-09-09T17:48:09;18.40;99.90
31619;DHT22;18230;51.502;7.108;2022-09-09T17:53:13;18.50;99.90
31619;DHT22;18230;51.502;7.108;2022-09-09T17:58:13;18.40;99.90
31619;DHT22;18230;51.502;7.108;2022-09-09T18:03:14;18.40;99.90
31619;DHT22;18230;51.502;7.108;2022-09-09T18:08:17;18.40;99.90
31619;DHT22;18230;51.502;7.108;2022-09-09T18:13:19;18.30;99.90
31619;DHT22;18230;51.502;7.108;2022-09-09T18:18:20;18.30;99.90
31619;DHT22;18230;51.502;7.108;2022-09-09T18:23:21;18.30;99.90
31619;DHT22;18230;51.502;7.108;2022-09-09T18:28:22;18.30;99.90
31619;DHT22;18230;51.502;7.108;2022-09-09T18:33:23;18.30;99.90
31619;DHT22;18230;51.502;7.108;2022-09-09T18:38:24;18.30;99.90
31619;DHT22;18230;51.502;7.108;2022-09-09T18:43:25;18.30;99.90
31619;DHT22;18230;51.502;7.108;2022-09-09T18:48:25;18.20;99.90
31619;DHT22;18230;51.502;7.108;2022-09-09T18:54:00;18.20;99.90
31619;DHT22;18230;51.502;7.108;2022-09-09T18:59:04;18.10;99.90
31619;DHT22;18230;51.502;7.108;2022-09-09T19:04:07;18.00;99.90
31619;DHT22;18230;51.502;7.108;2022-09-09T19:09:12;18.00;99.90
31619;DHT22;18230;51.502;7.108;2022-09-09T19:14:15;18.10;99.90
31619;DHT22;18230;51.502;7.108;2022-09-09T19:19:22;18.10;99.90
31619;DHT22;18230;51.502;7.108;2022-09-09T19:24:28;18.00;99.90
31619;DHT22;18230;51.502;7.108;2022-09-09T19:29:33;18.00;99.90
31619;DHT22;18230;51.502;7.108;2022-09-09T19:34:36;18.00;99.90
31619;DHT22;18230;51.502;7.108;2022-09-09T19:39:37;18.00;99.90
31619;DHT22;18230;51.502;7.108;2022-09-09T19:44:39;17.90;99.90
31619;DHT22;18230;51.502;7.108;2022-09-09T19:49:41;17.90;99.90
31619;DHT22;18230;51.502;7.108;2022-09-09T19:54:42;17.80;99.90
31619;DHT22;18230;51.502;7.108;2022-09-09T19:59:43;17.70;99.90
31619;DHT22;18230;51.502;7.108;2022-09-09T20:04:44;17.70;99.90
31619;DHT22;18230;51.502;7.108;2022-09-09T20:09:44;17.70;99.90
31619;DHT22;18230;51.502;7.108;2022-09-09T20:14:45;17.70;99.90
31619;DHT22;18230;51.502;7.108;2022-09-09T20:19:46;17.70;99.90
31619;DHT22;18230;51.502;7.108;2022-09-09T20:24:47;17.60;99.90
31619;DHT22;18230;51.502;7.108;2022-09-09T20:29:48;17.60;99.90
31619;DHT22;18230;51.502;7.108;2022-09-09T20:34:49;17.60;99.90
31619;DHT22;18230;51.502;7.108;2022-09-09T20:39:50;17.70;99.90
31619;DHT22;18230;51.502;7.108;2022-09-09T20:44:53;17.80;99.90
31619;DHT22;18230;51.502;7.108;2022-09-09T20:49:54;17.70;99.90
31619;DHT22;18230;51.502;7.108;2022-09-09T20:54:55;17.70;99.90
31619;DHT22;18230;51.502;7.108;2022-09-09T20:59:57;17.70;99.90
31619;DHT22;18230;51.502;7.108;2022-09-09T21:04:59;17.60;99.90
31619;DHT22;18230;51.502;7.108;2022-09-09T21:10:01;17.60;99.90
31619;DHT22;18230;51.502;7.108;2022-09-09T21:15:01;17.60;99.90
31619;DHT22;18230;51.502;7.108;2022-09-09T21:20:02;17.50;99.90
31619;DHT22;18230;51.502;7.108;2022-09-09T21:25:04;17.50;99.90
31619;DHT22;18230;51.502;7.108;2022-09-09T21:30:06;17.50;99.90
31619;DHT22;18230;51.502;7.108;2022-09-09T21:35:07;17.50;99.90
31619;DHT22;18230;51.502;7.108;2022-09-09T21:40:08;17.50;99.90
31619;DHT22;18230;51.502;7.108;2022-09-09T21:45:12;17.50;99.90
31619;DHT22;18230;51.502;7.108;2022-09-09T21:50:14;17.50;99.90
31619;DHT22;18230;51.502;7.108;2022-09-09T21:55:15;17.50;99.90
31619;DHT22;18230;51.502;7.108;2022-09-09T22:00:16;17.50;99.90
31619;DHT22;18230;51.502;7.108;2022-09-09T22:05:17;17.50;99.90
31619;DHT22;18230;51.502;7.108;2022-09-09T22:10:19;17.40;99.90
31619;DHT22;18230;51.502;7.108;2022-09-09T22:15:23;17.50;99.90
31619;DHT22;18230;51.502;7.108;2022-09-09T22:20:24;17.40;99.90
31619;DHT22;18230;51.502;7.108;2022-09-09T22:25:26;17.40;99.90
31619;DHT22;18230;51.502;7.108;2022-09-09T22:30:29;17.40;99.90
31619;DHT22;18230;51.502;7.108;2022-09-09T22:35:30;17.30;99.90
31619;DHT22;18230;51.502;7.108;2022-09-09T22:40:35;17.30;99.90
31619;DHT22;18230;51.502;7.108;2022-09-09T22:45:35;17.30;99.90
31619;DHT22;18230;51.502;7.108;2022-09-09T22:50:37;17.20;99.90
31619;DHT22;18230;51.502;7.108;2022-09-09T22:55:38;17.20;99.90
31619;DHT22;18230;51.502;7.108;2022-09-09T23:00:39;17.10;99.90
31619;DHT22;18230;51.502;7.108;2022-09-09T23:05:41;17.00;99.90
31619;DHT22;18230;51.502;7.108;2022-09-09T23:10:42;17.00;99.90
31619;DHT22;18230;51.502;7.108;2022-09-09T23:15:42;17.00;99.90
31619;DHT22;18230;51.502;7.108;2022-09-09T23:20:55;17.00;99.90
31619;DHT22;18230;51.502;7.108;2022-09-09T23:26:04;16.90;99.90
31619;DHT22;18230;51.502;7.108;2022-09-09T23:31:12;16.90;99.90
31619;DHT22;18230;51.502;7.108;2022-09-09T23:36:16;16.80;99.90
31619;DHT22;18230;51.502;7.108;2022-09-09T23:41:18;16.80;99.90
31619;DHT22;18230;51.502;7.108;2022-09-09T23:46:23;16.80;99.90
31619;DHT22;18230;51.502;7.108;2022-09-09T23:51:28;16.70;99.90
31619;DHT22;18230;51.502;7.108;2022-09-09T23:56:35;16.80;99.90
